Ashland, WV

5:52 PM EDT on May 06, 2015 (GMT -0400)
Mercer County | | Change Station
CLOSE
Current Station
Airport
Location: Bluefield,
Elevation: 2858 ft
Nearby Weather Stations

Elev 2858 ft 37.30 °N, 81.21 °W | Updated 1 hour ago

Overcast
Overcast
78 °F
Feels Like 78 °F
N
5
Wind Variable Wind from ESE

Today
High -- | Low -- °F
--% Chance of Precip.
Yesterday
High -- | Low -- °F
Precip. -- in
6:25 AM 8:19 PM
Waning Gibbous, 92% visible
Pressure 30.11 in
Visibility 10.0 miles
Clouds Few 7500 ft
Mostly Cloudy 10000 ft
Dew Point 45 °F
Humidity 31%
Rainfall 0.00 in
Snow Depth Not available.
UV 3 out of 12
Pollen 9.60 out of 12
Air Quality Not available.
Flu Activity Sporadic
METAR KBLF 062052Z AUTO 11004KT 10SM FEW075 BKN100 26/07 A3021 RMK AO2 LTG DSNT E-SW SLP194 T02560072 56017

More Conditions Fewer Conditions

Pressure 30.11 in
Visibility 10.0 miles
Clouds Few 7500 ft
Mostly Cloudy 10000 ft
Dew Point 45 °F
Humidity 31%
Rainfall 0.00 in
Snow Depth Not available.
UV 3 out of 12
Pollen 9.60 out of 12
Air Quality Not available.
Flu Activity Sporadic
METAR KBLF 062052Z AUTO 11004KT 10SM FEW075 BKN100 26/07 A3021 RMK AO2 LTG DSNT E-SW SLP194 T02560072 56017

More Conditions Fewer Conditions

10-Day Weather Forecast

Almanac

Astronomy

May. 06, 2015 Rise Set
Actual Time
Civil Twilight
Nautical Twilight
Astronomical Twilight
Moon
Length of Visible Light
Length of Day
Tomorrow will be .
, % of the Moon is Illuminated

Today's Extremes

State Highs State Lows

Community

WunderPhotos

Upload Photos

1,819,022 photos uploaded!

WunderBlogs® & News

Nearby

Air Quality

  Air Quality AQ Index Pollutant
Not available.

Snow Depth

Station Depth Elevation

Earthquake Activity

City Distance Mag. Time & Date
Minimum magnitude displayed is 2.5.

Coastal Water Temperatures

Place Temperature

Stations

Nearby Weather Stations

Station Location Temp. Windchill Dew Point Humidity Wind Precip. Elev Updated Type